createdAt,value
2022-11-19T00:02:00.585Z,12.38
2022-11-19T00:04:27.954Z,12.25
2022-11-19T00:06:55.279Z,11.82
2022-11-19T00:09:23.959Z,12.05
2022-11-19T00:12:08.917Z,11.35
2022-11-19T00:14:36.483Z,11.85
2022-11-19T00:17:03.774Z,11.70
2022-11-19T00:19:31.112Z,11.57
2022-11-19T00:21:58.418Z,11.77
2022-11-19T00:24:29.567Z,11.48
2022-11-19T00:26:56.960Z,11.07
2022-11-19T00:29:24.592Z,9.98
2022-11-19T00:31:51.884Z,10.50
2022-11-19T00:34:19.183Z,9.85
2022-11-19T00:36:46.472Z,9.88
2022-11-19T00:39:13.788Z,10.48
2022-11-19T00:41:42.418Z,9.93
2022-11-19T00:44:09.781Z,9.65
2022-11-19T00:46:37.078Z,9.77
2022-11-19T00:49:04.555Z,10.82
2022-11-19T00:51:31.850Z,10.20
2022-11-19T00:53:59.403Z,10.50
2022-11-19T00:56:27.851Z,9.95
2022-11-19T00:58:56.980Z,11.55
2022-11-19T01:01:25.277Z,10.57
2022-11-19T01:03:53.084Z,11.35
2022-11-19T01:06:21.255Z,9.85
2022-11-19T01:08:49.042Z,10.20
2022-11-19T01:11:18.209Z,10.45
2022-11-19T01:13:45.773Z,10.90
2022-11-19T01:16:15.439Z,10.70
2022-11-19T01:18:43.368Z,11.95
2022-11-19T01:21:11.938Z,13.85
2022-11-19T01:23:39.352Z,12.63
2022-11-19T01:26:06.742Z,12.30
2022-11-19T01:28:34.244Z,11.77
2022-11-19T01:31:01.590Z,10.48
2022-11-19T01:33:30.252Z,11.68
2022-11-19T01:35:58.147Z,11.43
2022-11-19T01:38:25.472Z,11.50
2022-11-19T01:40:53.223Z,10.10
2022-11-19T01:43:20.503Z,9.80
2022-11-19T01:45:49.011Z,10.27
2022-11-19T01:48:19.914Z,10.40
2022-11-19T01:50:50.340Z,9.90
2022-11-19T01:53:19.150Z,9.68
2022-11-19T01:55:47.485Z,10.55
2022-11-19T01:58:16.219Z,10.50
2022-11-19T02:00:43.592Z,10.50
2022-11-19T02:03:11.395Z,10.63
2022-11-19T02:05:39.016Z,11.23
2022-11-19T02:08:08.724Z,10.77
2022-11-19T02:10:40.096Z,11.95
2022-11-19T02:13:11.687Z,12.15
2022-11-19T02:15:42.295Z,11.32
2022-11-19T02:18:23.282Z,11.90
2022-11-19T02:20:56.359Z,11.05
2022-11-19T02:23:50.914Z,11.68
2022-11-19T02:26:31.612Z,11.32
2022-11-19T02:29:06.446Z,12.60
2022-11-19T02:34:03.806Z,11.68
2022-11-19T02:36:36.863Z,12.27
2022-11-19T02:39:05.665Z,11.02
2022-11-19T02:41:34.847Z,12.15
2022-11-19T02:44:21.284Z,11.25
2022-11-19T02:46:50.467Z,12.55
2022-11-19T02:49:20.854Z,13.25
2022-11-19T02:51:49.102Z,13.75
2022-11-19T02:54:17.160Z,14.32
2022-11-19T02:56:48.959Z,13.85
2022-11-19T02:59:34.558Z,15.23
2022-11-19T03:02:20.373Z,14.60
2022-11-19T03:04:49.075Z,14.95
2022-11-19T03:07:17.999Z,17.02
2022-11-19T03:09:47.240Z,14.73
2022-11-19T03:12:19.158Z,14.40
2022-11-19T03:15:08.072Z,15.48
2022-11-19T03:17:40.080Z,14.68
2022-11-19T03:20:16.419Z,14.75
2022-11-19T03:22:50.571Z,13.48
2022-11-19T03:25:21.202Z,13.90
2022-11-19T03:27:50.182Z,13.10
2022-11-19T03:30:18.727Z,13.25
2022-11-19T03:32:49.141Z,11.70
2022-11-19T03:35:20.455Z,10.07
2022-11-19T03:37:50.578Z,9.60
2022-11-19T03:40:19.055Z,9.27
2022-11-19T03:42:48.140Z,9.48
2022-11-19T03:45:17.076Z,10.98
2022-11-19T03:47:46.055Z,10.77
2022-11-19T03:50:17.184Z,11.75
2022-11-19T03:52:45.883Z,10.80
2022-11-19T03:55:13.427Z,12.40
2022-11-19T03:57:40.911Z,11.73
2022-11-19T04:00:09.011Z,10.82
2022-11-19T04:02:36.416Z,10.98
2022-11-19T04:05:03.723Z,9.70
2022-11-19T04:07:31.071Z,9.48
2022-11-19T04:09:59.779Z,7.65
2022-11-19T04:12:27.056Z,7.63
2022-11-19T04:14:54.381Z,6.97
2022-11-19T04:17:21.679Z,7.38
2022-11-19T04:19:49.019Z,7.82
2022-11-19T04:22:16.304Z,8.23
2022-11-19T04:24:43.598Z,10.40
2022-11-19T04:27:12.300Z,10.65
2022-11-19T04:29:39.665Z,11.00
2022-11-19T04:32:06.927Z,9.40
2022-11-19T04:34:34.232Z,3.53
2022-11-19T04:37:01.529Z,2.67
2022-11-19T04:39:28.827Z,2.90
2022-11-19T04:41:56.145Z,2.47
2022-11-19T04:44:24.838Z,2.50
2022-11-19T04:46:52.145Z,3.22
2022-11-19T04:49:19.724Z,3.20
2022-11-19T04:51:47.320Z,3.15
2022-11-19T04:54:14.596Z,3.33
2022-11-19T04:56:41.935Z,3.25
2022-11-19T04:59:09.374Z,3.33
2022-11-19T05:01:38.072Z,3.35
2022-11-19T05:04:05.569Z,3.45
2022-11-19T05:06:33.333Z,3.83
2022-11-19T05:09:00.748Z,4.07
2022-11-19T05:11:28.084Z,3.83
2022-11-19T05:13:55.575Z,3.90
2022-11-19T05:16:22.856Z,4.60
2022-11-19T05:18:51.575Z,4.78
2022-11-19T05:21:18.903Z,4.53
2022-11-19T05:23:46.178Z,4.57
2022-11-19T05:26:13.451Z,4.88
2022-11-19T05:28:40.769Z,5.18
2022-11-19T05:31:08.350Z,5.30
2022-11-19T05:33:35.704Z,5.50
2022-11-19T05:36:04.511Z,5.13
2022-11-19T05:38:31.874Z,6.25
2022-11-19T05:40:59.213Z,6.20
2022-11-19T05:43:27.002Z,5.70
2022-11-19T05:45:54.282Z,6.68
2022-11-19T05:48:21.570Z,6.63
2022-11-19T05:50:48.848Z,7.45
2022-11-19T05:53:17.667Z,7.43
2022-11-19T05:55:44.955Z,8.52
2022-11-19T05:58:13.599Z,7.90
2022-11-19T06:00:40.941Z,7.65
2022-11-19T06:03:08.306Z,8.43
2022-11-19T06:05:40.020Z,8.50
2022-11-19T06:08:07.514Z,8.88
2022-11-19T06:10:36.154Z,9.00
2022-11-19T06:13:03.457Z,10.48
2022-11-19T06:15:30.804Z,11.27
2022-11-19T06:17:58.122Z,11.93
2022-11-19T06:20:25.389Z,11.20
2022-11-19T06:22:52.723Z,12.40
2022-11-19T06:25:20.063Z,13.75
2022-11-19T06:27:48.704Z,14.02
2022-11-19T06:30:16.545Z,15.48
2022-11-19T06:32:43.836Z,15.73
2022-11-19T06:35:13.128Z,16.52
2022-11-19T06:37:41.500Z,14.38
2022-11-19T06:40:09.296Z,15.43
2022-11-19T06:42:39.483Z,14.50
2022-11-19T06:45:09.702Z,13.65
2022-11-19T06:47:37.582Z,14.35
2022-11-19T06:50:05.199Z,16.58
2022-11-19T06:52:32.536Z,15.57
2022-11-19T06:54:59.826Z,15.95
2022-11-19T06:57:27.538Z,17.10
2022-11-19T06:59:54.854Z,19.27
2022-11-19T07:02:23.517Z,19.65
2022-11-19T07:04:50.861Z,19.80
2022-11-19T07:07:18.178Z,20.38
2022-11-19T07:09:45.531Z,22.15
2022-11-19T07:12:12.897Z,22.38
2022-11-19T07:14:40.209Z,22.23
2022-11-19T07:17:07.492Z,22.30
2022-11-19T07:19:36.162Z,22.73
2022-11-19T07:22:03.447Z,22.48
2022-11-19T07:24:30.794Z,23.92
2022-11-19T07:26:58.096Z,22.25
2022-11-19T07:29:25.389Z,23.83
2022-11-19T07:31:53.272Z,24.35
2022-11-19T07:34:20.778Z,23.98
2022-11-19T07:36:49.933Z,22.50
2022-11-19T07:39:18.155Z,23.30
2022-11-19T07:42:03.291Z,22.73
2022-11-19T07:44:30.556Z,24.08
2022-11-19T07:46:57.971Z,23.15
2022-11-19T07:49:25.966Z,24.23
2022-11-19T07:51:54.878Z,23.77
2022-11-19T07:54:22.274Z,24.08
2022-11-19T07:56:49.704Z,25.00
2022-11-19T07:59:17.781Z,25.10
2022-11-19T08:01:45.458Z,23.35
2022-11-19T08:04:12.826Z,24.70
2022-11-19T08:06:40.146Z,24.20
2022-11-19T08:09:08.807Z,24.10
2022-11-19T08:11:36.182Z,24.77
2022-11-19T08:14:03.487Z,23.13
2022-11-19T08:16:50.320Z,24.02
2022-11-19T08:19:18.468Z,25.77
2022-11-19T08:21:47.120Z,26.42
2022-11-19T08:24:17.334Z,25.10
2022-11-19T08:26:45.118Z,24.85
2022-11-19T08:29:16.504Z,26.33
2022-11-19T08:31:44.577Z,25.55
2022-11-19T08:34:11.951Z,24.85
2022-11-19T08:36:39.689Z,23.85
2022-11-19T08:39:07.165Z,25.25
2022-11-19T08:41:52.988Z,25.40
2022-11-19T08:44:20.932Z,24.23
2022-11-19T08:46:48.671Z,22.13
2022-11-19T08:49:16.000Z,23.73
2022-11-19T08:51:43.336Z,22.73
2022-11-19T08:54:10.647Z,22.55
2022-11-19T08:56:39.284Z,22.20
2022-11-19T08:59:06.591Z,23.63
2022-11-19T09:01:33.935Z,21.45
2022-11-19T09:04:01.516Z,21.45
2022-11-19T09:06:28.840Z,21.83
2022-11-19T09:08:56.179Z,21.77
2022-11-19T09:11:23.867Z,22.30
2022-11-19T09:13:52.471Z,22.75
2022-11-19T09:16:19.767Z,22.15
2022-11-19T09:18:47.067Z,23.02
2022-11-19T09:21:14.512Z,22.60
2022-11-19T09:23:42.524Z,21.00
2022-11-19T09:26:10.531Z,19.85
2022-11-19T09:28:37.837Z,18.63
2022-11-19T09:31:08.109Z,18.20
2022-11-19T09:33:36.703Z,20.10
2022-11-19T09:36:04.049Z,20.45
2022-11-19T09:38:34.821Z,19.40
2022-11-19T09:41:12.128Z,19.50
2022-11-19T09:43:46.080Z,17.50
2022-11-19T09:46:17.335Z,16.70
2022-11-19T09:48:45.547Z,17.50
2022-11-19T09:51:14.530Z,17.00
2022-11-19T09:53:43.586Z,15.43
2022-11-19T09:56:14.591Z,15.50
2022-11-19T09:58:42.932Z,15.27
2022-11-19T10:01:13.249Z,16.23
2022-11-19T10:03:44.609Z,14.27
2022-11-19T10:06:20.199Z,15.57
2022-11-19T10:08:55.780Z,14.95
2022-11-19T10:11:30.578Z,14.68
2022-11-19T10:14:02.936Z,14.30
2022-11-19T10:16:37.447Z,13.82
2022-11-19T10:19:11.649Z,13.50
2022-11-19T10:21:42.591Z,13.48
2022-11-19T10:24:17.606Z,14.20
2022-11-19T10:26:47.794Z,14.80
2022-11-19T10:29:16.057Z,14.88
2022-11-19T10:31:45.174Z,14.52
2022-11-19T10:34:16.594Z,13.65
2022-11-19T10:36:45.491Z,14.23
2022-11-19T10:39:17.601Z,13.38
2022-11-19T10:41:47.654Z,13.75
2022-11-19T10:44:37.136Z,13.25
2022-11-19T10:47:05.190Z,12.77
2022-11-19T10:49:37.478Z,13.55
2022-11-19T10:52:04.882Z,13.02
2022-11-19T10:54:32.541Z,13.40
2022-11-19T10:57:01.295Z,12.90
2022-11-19T10:59:30.959Z,13.27
2022-11-19T11:01:59.481Z,13.13
2022-11-19T11:04:27.614Z,10.57
2022-11-19T11:06:57.828Z,11.75
2022-11-19T11:09:32.631Z,13.52
2022-11-19T11:14:54.834Z,12.73
2022-11-19T11:17:23.455Z,11.85
2022-11-19T11:19:58.556Z,12.57
2022-11-19T11:22:27.927Z,13.48
2022-11-19T11:24:55.391Z,12.25
2022-11-19T11:27:24.985Z,12.05
2022-11-19T11:30:05.012Z,11.77
2022-11-19T11:32:33.154Z,12.25
2022-11-19T11:35:05.269Z,12.20
2022-11-19T11:37:36.016Z,12.83
2022-11-19T11:40:03.398Z,12.15
2022-11-19T11:42:30.681Z,12.32
2022-11-19T11:44:58.716Z,12.40
2022-11-19T11:47:27.767Z,12.57
2022-11-19T11:50:02.646Z,12.95
2022-11-19T11:52:33.512Z,12.65
2022-11-19T11:55:03.270Z,12.45
2022-11-19T11:57:31.372Z,11.93
2022-11-19T11:59:58.780Z,10.63
2022-11-19T12:02:30.183Z,12.18
2022-11-19T12:04:59.120Z,12.10
2022-11-19T12:07:47.886Z,11.50
2022-11-19T12:10:22.511Z,11.60
2022-11-19T12:12:53.381Z,11.57
2022-11-19T12:15:24.716Z,12.27
2022-11-19T12:17:58.825Z,11.07
2022-11-19T12:20:31.139Z,12.15
2022-11-19T12:23:10.051Z,11.93
2022-11-19T12:25:41.148Z,11.35
2022-11-19T12:28:15.672Z,11.55
2022-11-19T12:30:48.033Z,10.88
2022-11-19T12:33:22.855Z,11.50
2022-11-19T12:35:56.728Z,11.43
2022-11-19T12:38:25.959Z,11.47
2022-11-19T12:40:58.147Z,11.30
2022-11-19T12:43:38.743Z,11.60
2022-11-19T12:46:10.096Z,12.40
2022-11-19T12:48:47.990Z,12.05
2022-11-19T12:51:19.991Z,11.93
2022-11-19T12:54:06.729Z,11.10
2022-11-19T12:56:42.668Z,12.30
2022-11-19T12:59:15.304Z,11.27
2022-11-19T13:01:44.544Z,10.68
2022-11-19T13:04:15.269Z,11.27
2022-11-19T13:06:45.491Z,12.30
2022-11-19T13:09:16.313Z,12.15
2022-11-19T13:11:46.672Z,12.07
2022-11-19T13:14:17.711Z,10.93
2022-11-19T13:16:45.475Z,11.48
2022-11-19T13:19:19.520Z,10.93
2022-11-19T13:21:48.837Z,12.02
2022-11-19T13:24:21.941Z,12.18
2022-11-19T13:26:51.270Z,11.75
2022-11-19T13:29:26.475Z,11.40
2022-11-19T13:31:55.367Z,11.60
2022-11-19T13:34:24.836Z,11.15
2022-11-19T13:36:59.227Z,11.23
2022-11-19T13:39:29.717Z,12.15
2022-11-19T13:42:17.272Z,11.18
2022-11-19T13:44:44.703Z,12.35
2022-11-19T13:47:15.602Z,12.35
2022-11-19T13:49:44.724Z,12.45
2022-11-19T13:52:18.438Z,12.40
2022-11-19T13:54:46.001Z,12.77
2022-11-19T13:57:26.430Z,12.00
2022-11-19T13:59:57.399Z,12.88
2022-11-19T14:02:37.962Z,13.63
2022-11-19T14:05:24.069Z,11.50
2022-11-19T14:07:59.724Z,12.60
2022-11-19T14:10:31.294Z,11.50
2022-11-19T14:13:07.900Z,12.65
2022-11-19T14:16:02.557Z,11.77
2022-11-19T14:18:54.372Z,12.40
2022-11-19T14:21:55.361Z,11.93
2022-11-19T14:24:59.423Z,12.88
2022-11-19T14:27:26.965Z,13.52
2022-11-19T14:29:57.499Z,12.77
2022-11-19T14:32:35.184Z,12.90
2022-11-19T14:35:32.463Z,12.77
2022-11-19T14:38:06.769Z,12.57
2022-11-19T14:40:35.050Z,12.63
2022-11-19T14:43:36.551Z,12.43
2022-11-19T14:46:33.852Z,11.75
2022-11-19T14:49:04.579Z,11.43
2022-11-19T14:51:34.445Z,11.93
2022-11-19T14:54:04.243Z,11.65
2022-11-19T14:56:32.382Z,12.60
2022-11-19T14:59:04.432Z,12.60
2022-11-19T15:01:32.091Z,12.60
2022-11-19T15:04:00.459Z,12.80
2022-11-19T15:06:29.490Z,12.25
2022-11-19T15:08:58.971Z,12.35
2022-11-19T15:11:46.267Z,12.32
2022-11-19T15:14:36.829Z,12.10
2022-11-19T15:17:07.182Z,11.68
2022-11-19T15:19:38.247Z,12.85
2022-11-19T15:22:24.246Z,12.45
2022-11-19T15:25:03.497Z,12.57
2022-11-19T15:27:39.948Z,12.15
2022-11-19T15:30:10.392Z,12.45
2022-11-19T15:32:46.742Z,13.10
2022-11-19T15:35:32.858Z,12.25
2022-11-19T15:38:03.449Z,12.60
2022-11-19T15:40:34.008Z,13.95
2022-11-19T15:43:06.324Z,12.73
2022-11-19T15:45:37.507Z,13.10
2022-11-19T15:48:11.246Z,12.57
2022-11-19T15:50:38.834Z,13.48
2022-11-19T15:53:15.646Z,13.55
2022-11-19T15:55:50.149Z,12.80
2022-11-19T15:58:19.262Z,13.55
2022-11-19T16:00:46.931Z,12.93
2022-11-19T16:03:14.316Z,13.40
2022-11-19T16:05:46.329Z,12.95
2022-11-19T16:10:47.112Z,13.27
2022-11-19T16:13:40.807Z,12.93
2022-11-19T16:16:32.360Z,13.02
2022-11-19T16:18:59.747Z,13.40
2022-11-19T16:21:28.470Z,13.32
2022-11-19T16:24:13.458Z,13.20
2022-11-19T16:26:41.857Z,12.82
2022-11-19T16:29:16.479Z,12.50
2022-11-19T16:31:43.799Z,11.95
2022-11-19T16:34:15.168Z,15.52
2022-11-19T16:36:47.035Z,12.10
2022-11-19T16:39:14.603Z,11.90
2022-11-19T16:42:04.779Z,13.15
2022-11-19T16:44:34.399Z,13.93
2022-11-19T16:47:04.940Z,13.50
2022-11-19T16:49:32.969Z,13.70
2022-11-19T16:52:00.511Z,13.85
2022-11-19T16:54:44.301Z,13.05
2022-11-19T16:57:12.462Z,13.02
2022-11-19T16:59:41.216Z,14.25
2022-11-19T17:02:14.896Z,13.57
2022-11-19T17:07:12.767Z,12.57
2022-11-19T17:09:44.222Z,14.25
2022-11-19T17:12:27.047Z,14.02
2022-11-19T17:14:57.057Z,14.73
2022-11-19T17:17:40.049Z,13.70
2022-11-19T17:20:26.615Z,14.02
2022-11-19T17:22:54.075Z,14.75
2022-11-19T17:25:21.393Z,14.55
2022-11-19T17:27:51.189Z,14.02
2022-11-19T17:30:22.189Z,15.27
2022-11-19T17:32:51.505Z,13.93
2022-11-19T17:35:32.278Z,14.45
2022-11-19T17:37:59.764Z,15.38
2022-11-19T17:40:27.110Z,16.48
2022-11-19T17:43:12.041Z,15.50
2022-11-19T17:45:40.728Z,14.93
2022-11-19T17:48:14.705Z,14.90
2022-11-19T17:50:42.048Z,16.42
2022-11-19T17:53:09.356Z,15.43
2022-11-19T17:55:36.779Z,16.20
2022-11-19T17:58:04.098Z,16.00
2022-11-19T18:00:31.507Z,16.33
2022-11-19T18:03:03.032Z,16.23
2022-11-19T18:05:33.489Z,16.20
2022-11-19T18:08:00.814Z,15.57
2022-11-19T18:10:28.319Z,14.73
2022-11-19T18:12:55.744Z,15.20
2022-11-19T18:15:23.068Z,14.38
2022-11-19T18:17:50.409Z,14.73
2022-11-19T18:20:19.106Z,16.38
2022-11-19T18:22:47.589Z,16.35
2022-11-19T18:25:17.231Z,15.52
2022-11-19T18:27:44.820Z,15.35
2022-11-19T18:30:12.730Z,14.02
2022-11-19T18:32:40.242Z,14.02
2022-11-19T18:35:13.153Z,14.45
2022-11-19T18:37:41.819Z,14.45
2022-11-19T18:40:09.662Z,13.70
2022-11-19T18:42:37.478Z,15.27
2022-11-19T18:45:04.196Z,15.00
2022-11-19T18:47:31.543Z,13.60
2022-11-19T18:49:59.008Z,15.10
2022-11-19T18:52:26.340Z,14.38
2022-11-19T18:54:55.052Z,14.95
2022-11-19T18:57:22.395Z,14.00
2022-11-19T18:59:49.742Z,13.75
2022-11-19T19:02:17.127Z,14.38
2022-11-19T19:04:49.723Z,13.63
2022-11-19T19:07:18.384Z,14.85
2022-11-19T19:09:45.774Z,14.88
2022-11-19T19:12:19.501Z,14.98
2022-11-19T19:14:48.059Z,14.32
2022-11-19T19:17:16.262Z,15.50
2022-11-19T19:19:43.564Z,13.48
2022-11-19T19:22:10.878Z,13.82
2022-11-19T19:24:38.232Z,14.60
2022-11-19T19:27:05.984Z,14.75
2022-11-19T19:29:34.676Z,14.95
2022-11-19T19:32:02.146Z,13.95
2022-11-19T19:34:29.477Z,15.13
2022-11-19T19:36:56.950Z,16.70
2022-11-19T19:39:24.866Z,15.55
2022-11-19T19:41:52.923Z,14.73
2022-11-19T19:44:20.245Z,14.20
2022-11-19T19:46:49.355Z,14.88
2022-11-19T19:49:16.755Z,14.73
2022-11-19T19:51:44.236Z,14.60
2022-11-19T19:54:11.595Z,14.40
2022-11-19T19:56:39.628Z,14.75
2022-11-19T19:59:06.995Z,15.45
2022-11-19T20:01:37.297Z,15.30
2022-11-19T20:04:06.907Z,13.43
2022-11-19T20:06:35.224Z,14.07
2022-11-19T20:09:07.049Z,14.35
2022-11-19T20:11:36.239Z,14.50
2022-11-19T20:14:03.576Z,13.65
2022-11-19T20:16:31.680Z,14.00
2022-11-19T20:18:59.804Z,13.43
2022-11-19T20:21:31.346Z,14.35
2022-11-19T20:23:58.727Z,14.43
2022-11-19T20:26:27.687Z,15.35
2022-11-19T20:28:55.613Z,14.43
2022-11-19T20:31:22.956Z,14.55
2022-11-19T20:33:52.355Z,13.88
2022-11-19T20:36:19.740Z,14.25
2022-11-19T20:38:48.783Z,13.70
2022-11-19T20:41:34.558Z,15.07
2022-11-19T20:44:21.135Z,13.57
2022-11-19T20:46:49.160Z,15.52
2022-11-19T20:49:17.631Z,14.75
2022-11-19T20:51:45.487Z,12.88
2022-11-19T20:54:14.616Z,13.80
2022-11-19T20:56:41.974Z,15.27
2022-11-19T20:59:09.495Z,14.52
2022-11-19T21:01:36.940Z,14.10
2022-11-19T21:04:04.460Z,14.82
2022-11-19T21:06:32.077Z,15.10
2022-11-19T21:08:59.378Z,14.82
2022-11-19T21:11:28.040Z,15.75
2022-11-19T21:13:55.419Z,16.38
2022-11-19T21:16:23.526Z,16.30
2022-11-19T21:18:51.287Z,16.77
2022-11-19T21:21:19.276Z,15.10
2022-11-19T21:23:47.069Z,16.25
2022-11-19T21:26:16.277Z,16.40
2022-11-19T21:28:46.222Z,16.00
2022-11-19T21:31:13.688Z,15.02
2022-11-19T21:33:41.280Z,15.77
2022-11-19T21:36:08.988Z,15.95
2022-11-19T21:38:36.706Z,16.02
2022-11-19T21:41:04.403Z,15.95
2022-11-19T21:43:31.755Z,18.02
2022-11-19T21:46:00.377Z,18.08
2022-11-19T21:48:27.745Z,17.38
2022-11-19T21:50:55.157Z,15.82
2022-11-19T21:53:22.595Z,16.63
2022-11-19T21:55:50.163Z,16.05
2022-11-19T21:58:17.526Z,16.23
2022-11-19T22:00:46.815Z,16.55
2022-11-19T22:03:15.625Z,16.83
2022-11-19T22:05:43.299Z,17.65
2022-11-19T22:08:10.620Z,17.20
2022-11-19T22:10:42.782Z,17.25
2022-11-19T22:15:39.778Z,17.25
2022-11-19T22:18:07.197Z,15.88
2022-11-19T22:20:35.878Z,16.42
2022-11-19T22:23:03.204Z,16.92
2022-11-19T22:25:30.520Z,16.65
2022-11-19T22:27:57.800Z,16.42
2022-11-19T22:30:25.128Z,16.42
2022-11-19T22:32:53.296Z,16.45
2022-11-19T22:35:20.613Z,15.93
2022-11-19T22:37:49.259Z,16.88
2022-11-19T22:40:16.522Z,16.42
2022-11-19T22:42:43.859Z,16.20
2022-11-19T22:45:11.334Z,16.08
2022-11-19T22:47:38.652Z,16.83
2022-11-19T22:50:06.398Z,17.23
2022-11-19T22:52:33.699Z,16.27
2022-11-19T22:55:02.342Z,16.17
2022-11-19T22:57:29.668Z,16.40
2022-11-19T22:59:56.979Z,18.05
2022-11-19T23:02:24.349Z,16.40
2022-11-19T23:04:51.771Z,17.90
2022-11-19T23:07:19.101Z,17.60
2022-11-19T23:09:46.432Z,17.38
2022-11-19T23:12:32.630Z,16.88
2022-11-19T23:14:59.930Z,17.05
2022-11-19T23:17:27.216Z,17.77
2022-11-19T23:19:54.568Z,16.92
2022-11-19T23:22:21.893Z,18.75
2022-11-19T23:24:49.189Z,17.02
2022-11-19T23:27:21.986Z,17.80
2022-11-19T23:29:49.643Z,18.65
2022-11-19T23:32:16.951Z,18.52
2022-11-19T23:34:44.442Z,18.33
2022-11-19T23:37:11.767Z,18.05
2022-11-19T23:39:39.119Z,17.85
2022-11-19T23:42:06.490Z,17.92
2022-11-19T23:44:35.194Z,19.30
2022-11-19T23:47:03.298Z,16.60
2022-11-19T23:49:30.600Z,19.08
2022-11-19T23:51:57.943Z,18.10
2022-11-19T23:54:25.241Z,17.67
2022-11-19T23:56:52.560Z,19.40
2022-11-19T23:59:24.435Z,18.10
